createdAt,value
2023-03-10T00:01:15.340Z,96093.73
2023-03-10T00:03:43.418Z,96103.55
2023-03-10T00:06:13.752Z,96108.42
2023-03-10T00:08:42.275Z,96109.86
2023-03-10T00:11:10.924Z,96110.51
2023-03-10T00:13:39.420Z,96112.55
2023-03-10T00:16:08.024Z,96116.46
2023-03-10T00:18:36.391Z,96117.97
2023-03-10T00:21:05.275Z,96118.59
2023-03-10T00:23:34.408Z,96112.73
2023-03-10T00:26:03.790Z,96111.23
2023-03-10T00:28:31.739Z,96113.32
2023-03-10T00:31:00.771Z,96108.31
2023-03-10T00:33:30.370Z,96103.65
2023-03-10T00:36:09.506Z,96094.34
2023-03-10T00:38:37.680Z,96088.05
2023-03-10T00:41:07.486Z,96084.92
2023-03-10T00:43:36.389Z,96082.61
2023-03-10T00:46:05.731Z,96085.41
2023-03-10T00:48:34.530Z,96081.06
2023-03-10T00:51:03.281Z,96087.64
2023-03-10T00:53:31.672Z,96087.89
2023-03-10T00:56:08.232Z,96084.39
2023-03-10T00:58:36.419Z,96082.02
2023-03-10T01:01:05.321Z,96080.71
2023-03-10T01:03:33.298Z,96079.74
2023-03-10T01:06:01.475Z,96080.61
2023-03-10T01:08:30.883Z,96077.05
2023-03-10T01:11:00.185Z,96072.85
2023-03-10T01:13:28.264Z,96075.91
2023-03-10T01:15:56.144Z,96078.29
2023-03-10T01:18:24.288Z,96079.34
2023-03-10T01:20:52.391Z,96083.65
2023-03-10T01:23:24.665Z,96085.09
2023-03-10T01:25:53.197Z,96079.41
2023-03-10T01:28:21.866Z,96077.39
2023-03-10T01:30:50.224Z,96075.20
2023-03-10T01:33:18.155Z,96076.57
2023-03-10T01:35:46.205Z,96074.55
2023-03-10T01:38:14.163Z,96075.20
2023-03-10T01:40:47.369Z,96069.20
2023-03-10T01:43:22.258Z,96070.98
2023-03-10T01:45:53.124Z,96071.04
2023-03-10T01:48:22.717Z,96077.86
2023-03-10T01:50:54.066Z,96083.05
2023-03-10T01:53:22.769Z,96083.77
2023-03-10T01:55:53.282Z,96087.20
2023-03-10T01:58:23.307Z,96084.05
2023-03-10T02:00:53.064Z,96083.23
2023-03-10T02:03:30.109Z,96081.48
2023-03-10T02:06:03.950Z,96084.39
2023-03-10T02:08:35.565Z,96088.52
2023-03-10T02:11:03.956Z,96084.03
2023-03-10T02:13:32.150Z,96084.84
2023-03-10T02:16:00.665Z,96086.58
2023-03-10T02:18:30.848Z,96085.30
2023-03-10T02:21:02.584Z,96084.55
2023-03-10T02:23:51.280Z,96084.30
2023-03-10T02:26:56.273Z,96089.08
2023-03-10T02:29:27.107Z,96091.44
2023-03-10T02:31:56.501Z,96096.89
2023-03-10T02:34:25.622Z,96099.02
2023-03-10T02:36:53.701Z,96097.98
2023-03-10T02:39:22.080Z,96094.83
2023-03-10T02:41:50.709Z,96098.84
2023-03-10T02:44:21.407Z,96097.91
2023-03-10T02:46:49.612Z,96092.05
2023-03-10T02:49:19.501Z,96093.40
2023-03-10T02:51:48.103Z,96091.08
2023-03-10T02:54:18.029Z,96087.23
2023-03-10T02:56:46.807Z,96086.05
2023-03-10T02:59:16.481Z,96087.33
2023-03-10T03:01:49.198Z,96092.44
2023-03-10T03:04:18.869Z,96089.27
2023-03-10T03:06:48.110Z,96085.52
2023-03-10T03:09:16.693Z,96082.42
2023-03-10T03:11:46.478Z,96081.42
2023-03-10T03:14:14.797Z,96076.55
2023-03-10T03:16:43.752Z,96071.77
2023-03-10T03:19:12.174Z,96078.67
2023-03-10T03:21:40.560Z,96077.80
2023-03-10T03:24:08.533Z,96078.94
2023-03-10T03:26:37.632Z,96074.66
2023-03-10T03:29:12.255Z,96071.65
2023-03-10T03:31:41.918Z,96070.77
2023-03-10T03:34:16.905Z,96058.48
2023-03-10T03:36:45.805Z,96055.42
2023-03-10T03:39:17.655Z,96059.68
2023-03-10T03:41:49.331Z,96060.09
2023-03-10T03:44:17.699Z,96064.14
2023-03-10T03:46:46.190Z,96063.81
2023-03-10T03:49:15.368Z,96060.86
2023-03-10T03:51:44.188Z,96060.02
2023-03-10T03:54:12.666Z,96060.14
2023-03-10T03:56:41.054Z,96059.00
2023-03-10T03:59:09.915Z,96059.86
2023-03-10T04:01:39.563Z,96059.95
2023-03-10T04:04:07.740Z,96058.79
2023-03-10T04:06:36.022Z,96058.48
2023-03-10T04:09:06.659Z,96056.02
2023-03-10T04:11:35.154Z,96056.59
2023-03-10T04:14:03.459Z,96054.22
2023-03-10T04:16:31.908Z,96050.74
2023-03-10T04:19:01.841Z,96044.82
2023-03-10T04:21:30.037Z,96040.39
2023-03-10T04:23:58.797Z,96035.44
2023-03-10T04:26:28.506Z,96031.08
2023-03-10T04:28:57.617Z,96031.73
2023-03-10T04:31:26.676Z,96034.02
2023-03-10T04:33:54.997Z,96032.54
2023-03-10T04:36:23.219Z,96033.07
2023-03-10T04:38:54.417Z,96032.42
2023-03-10T04:41:24.548Z,96033.88
2023-03-10T04:43:52.627Z,96031.13
2023-03-10T04:46:21.174Z,96029.23
2023-03-10T04:48:49.606Z,96029.05
2023-03-10T04:51:17.876Z,96029.85
2023-03-10T04:53:49.426Z,96028.48
2023-03-10T04:56:18.019Z,96026.73
2023-03-10T04:58:46.169Z,96021.77
2023-03-10T05:01:15.701Z,96023.95
2023-03-10T05:03:50.030Z,96022.95
2023-03-10T05:06:20.160Z,96022.59
2023-03-10T05:08:58.045Z,96019.27
2023-03-10T05:11:26.648Z,96016.29
2023-03-10T05:13:54.605Z,96013.65
2023-03-10T05:16:23.036Z,96016.98
2023-03-10T05:18:51.994Z,96018.11
2023-03-10T05:21:23.551Z,96019.30
2023-03-10T05:23:52.587Z,96020.77
2023-03-10T05:26:20.825Z,96020.66
2023-03-10T05:28:49.175Z,96023.31
2023-03-10T05:31:26.332Z,96024.80
2023-03-10T05:33:58.558Z,96033.95
2023-03-10T05:36:26.826Z,96034.66
2023-03-10T05:38:55.246Z,96034.97
2023-03-10T05:41:23.300Z,96035.80
2023-03-10T05:43:54.145Z,96037.31
2023-03-10T05:46:22.542Z,96038.33
2023-03-10T05:48:53.978Z,96033.83
2023-03-10T05:51:22.261Z,96031.26
2023-03-10T05:53:50.653Z,96026.95
2023-03-10T05:56:23.222Z,96037.60
2023-03-10T05:58:54.269Z,96040.48
2023-03-10T06:01:26.032Z,96039.73
2023-03-10T06:03:54.064Z,96035.88
2023-03-10T06:06:22.182Z,96036.52
2023-03-10T06:08:50.258Z,96033.21
2023-03-10T06:11:18.843Z,96030.27
2023-03-10T06:13:46.925Z,96024.95
2023-03-10T06:16:14.945Z,96023.48
2023-03-10T06:18:43.443Z,96023.16
2023-03-10T06:21:12.696Z,96028.29
2023-03-10T06:23:41.154Z,96029.87
2023-03-10T06:26:12.024Z,96027.92
2023-03-10T06:28:41.419Z,96029.42
2023-03-10T06:31:12.776Z,96032.47
2023-03-10T06:33:40.964Z,96026.23
2023-03-10T06:36:10.308Z,96024.11
2023-03-10T06:38:38.947Z,96021.66
2023-03-10T06:41:07.638Z,96015.90
2023-03-10T06:43:35.973Z,96016.42
2023-03-10T06:46:06.017Z,96008.89
2023-03-10T06:48:34.840Z,96002.52
2023-03-10T06:51:05.880Z,96002.14
2023-03-10T06:53:34.060Z,95996.13
2023-03-10T06:56:12.940Z,95994.77
2023-03-10T06:58:41.472Z,95992.05
2023-03-10T07:01:18.369Z,95987.23
2023-03-10T07:03:46.524Z,95986.47
2023-03-10T07:06:14.695Z,95984.74
2023-03-10T07:08:42.674Z,95985.46
2023-03-10T07:11:11.060Z,95984.80
2023-03-10T07:13:39.040Z,95980.43
2023-03-10T07:16:07.276Z,95978.84
2023-03-10T07:18:35.396Z,95980.14
2023-03-10T07:21:06.965Z,95978.08
2023-03-10T07:23:35.219Z,95979.94
2023-03-10T07:26:05.962Z,95975.47
2023-03-10T07:28:34.445Z,95969.91
2023-03-10T07:31:03.466Z,95967.45
2023-03-10T07:33:31.621Z,95965.08
2023-03-10T07:36:00.273Z,95962.73
2023-03-10T07:38:28.265Z,95952.35
2023-03-10T07:40:56.264Z,95951.39
2023-03-10T07:43:24.742Z,95951.10
2023-03-10T07:45:52.828Z,95947.66
2023-03-10T07:48:20.808Z,95942.61
2023-03-10T07:50:58.625Z,95943.79
2023-03-10T07:53:26.988Z,95936.73
2023-03-10T07:55:55.029Z,95925.88
2023-03-10T07:58:23.338Z,95922.12
2023-03-10T08:00:55.805Z,95924.16
2023-03-10T08:03:25.144Z,95922.63
2023-03-10T08:05:53.504Z,95924.56
2023-03-10T08:08:21.676Z,95918.94
2023-03-10T08:10:49.649Z,95913.23
2023-03-10T08:13:17.771Z,95909.89
2023-03-10T08:15:45.831Z,95898.73
2023-03-10T08:18:13.889Z,95893.26
2023-03-10T08:20:41.910Z,95894.47
2023-03-10T08:23:09.741Z,95899.48
2023-03-10T08:25:38.104Z,95897.65
2023-03-10T08:28:06.092Z,95897.73
2023-03-10T08:30:34.067Z,95895.02
2023-03-10T08:33:02.384Z,95887.71
2023-03-10T08:35:30.457Z,95882.41
2023-03-10T08:37:58.401Z,95876.81
2023-03-10T08:40:26.499Z,95873.58
2023-03-10T08:42:54.537Z,95869.54
2023-03-10T08:45:22.521Z,95864.89
2023-03-10T08:47:50.421Z,95860.12
2023-03-10T08:50:18.677Z,95854.94
2023-03-10T08:52:46.860Z,95852.70
2023-03-10T08:55:15.034Z,95844.15
2023-03-10T08:57:43.113Z,95843.43
2023-03-10T09:00:13.235Z,95833.46
2023-03-10T09:02:42.457Z,95830.52
2023-03-10T09:05:10.719Z,95831.71
2023-03-10T09:07:38.800Z,95828.25
2023-03-10T09:10:07.171Z,95830.17
2023-03-10T09:12:38.708Z,95832.35
2023-03-10T09:15:07.834Z,95826.45
2023-03-10T09:17:36.015Z,95824.40
2023-03-10T09:20:06.543Z,95824.97
2023-03-10T09:22:34.520Z,95822.68
2023-03-10T09:25:02.449Z,95818.30
2023-03-10T09:27:30.669Z,95817.67
2023-03-10T09:30:00.646Z,95816.75
2023-03-10T09:32:29.740Z,95813.41
2023-03-10T09:34:57.758Z,95810.45
2023-03-10T09:37:25.844Z,95807.08
2023-03-10T09:39:54.025Z,95800.56
2023-03-10T09:42:39.490Z,95797.38
2023-03-10T09:45:26.301Z,95799.08
2023-03-10T09:48:09.829Z,95795.17
2023-03-10T09:50:37.734Z,95794.67
2023-03-10T09:53:07.429Z,95786.89
2023-03-10T09:55:47.877Z,95789.31
2023-03-10T09:58:37.124Z,95781.58
2023-03-10T10:01:06.654Z,95783.34
2023-03-10T10:03:52.792Z,95781.52
2023-03-10T10:06:28.351Z,95778.98
2023-03-10T10:09:04.585Z,95779.73
2023-03-10T10:11:34.965Z,95777.41
2023-03-10T10:14:29.402Z,95778.19
2023-03-10T10:17:02.295Z,95764.19
2023-03-10T10:19:30.316Z,95762.67
2023-03-10T10:22:15.385Z,95757.90
2023-03-10T10:24:56.851Z,95746.37
2023-03-10T10:27:25.683Z,95743.34
2023-03-10T10:29:53.610Z,95741.88
2023-03-10T10:32:21.999Z,95737.42
2023-03-10T10:34:50.380Z,95739.94
2023-03-10T10:37:21.325Z,95735.56
2023-03-10T10:39:51.044Z,95728.24
2023-03-10T10:42:24.458Z,95730.00
2023-03-10T10:44:56.814Z,95724.60
2023-03-10T10:47:27.879Z,95721.27
2023-03-10T10:50:08.635Z,95713.73
2023-03-10T10:52:36.720Z,95703.05
2023-03-10T10:55:05.600Z,95700.67
2023-03-10T10:57:35.521Z,95685.89
2023-03-10T11:00:25.335Z,95688.50
2023-03-10T11:02:54.227Z,95685.50
2023-03-10T11:05:24.510Z,95684.11
2023-03-10T11:07:52.487Z,95681.34
2023-03-10T11:10:25.474Z,95677.08
2023-03-10T11:12:56.366Z,95678.94
2023-03-10T11:15:40.421Z,95678.16
2023-03-10T11:18:18.147Z,95673.48
2023-03-10T11:20:54.929Z,95659.91
2023-03-10T11:23:29.644Z,95656.09
2023-03-10T11:25:57.629Z,95648.30
2023-03-10T11:28:28.681Z,95645.91
2023-03-10T11:31:16.925Z,95642.81
2023-03-10T11:33:44.989Z,95636.67
2023-03-10T11:36:21.779Z,95627.77
2023-03-10T11:38:52.296Z,95628.96
2023-03-10T11:41:23.440Z,95622.10
2023-03-10T11:44:00.728Z,95620.05
2023-03-10T11:46:31.300Z,95619.36
2023-03-10T11:49:06.322Z,95617.23
2023-03-10T11:51:50.849Z,95616.75
2023-03-10T11:54:26.897Z,95616.93
2023-03-10T11:56:55.499Z,95612.57
2023-03-10T11:59:26.129Z,95612.75
2023-03-10T12:01:54.204Z,95603.71
2023-03-10T12:04:33.127Z,95596.10
2023-03-10T12:07:03.974Z,95594.73
2023-03-10T12:09:38.394Z,95589.02
2023-03-10T12:12:07.612Z,95582.66
2023-03-10T12:14:35.877Z,95589.48
2023-03-10T12:17:04.871Z,95581.27
2023-03-10T12:19:33.185Z,95572.83
2023-03-10T12:22:20.257Z,95570.98
2023-03-10T12:24:48.241Z,95572.60
2023-03-10T12:27:16.523Z,95568.82
2023-03-10T12:29:44.592Z,95568.54
2023-03-10T12:32:32.899Z,95566.85
2023-03-10T12:35:19.836Z,95567.45
2023-03-10T12:37:47.813Z,95568.24
2023-03-10T12:40:41.779Z,95560.48
2023-03-10T12:43:35.948Z,95568.98
2023-03-10T12:46:04.957Z,95561.09
2023-03-10T12:48:35.588Z,95561.39
2023-03-10T12:51:09.695Z,95559.23
2023-03-10T12:54:10.007Z,95561.83
2023-03-10T12:56:42.934Z,95561.52
2023-03-10T12:59:16.598Z,95556.91
2023-03-10T13:01:55.598Z,95554.93
2023-03-10T13:04:26.884Z,95553.86
2023-03-10T13:07:03.960Z,95548.23
2023-03-10T13:09:43.743Z,95548.03
2023-03-10T13:12:30.308Z,95543.52
2023-03-10T13:15:00.019Z,95534.41
2023-03-10T13:17:29.851Z,95533.52
2023-03-10T13:19:59.240Z,95526.79
2023-03-10T13:22:27.841Z,95524.67
2023-03-10T13:25:00.442Z,95523.14
2023-03-10T13:27:30.340Z,95520.48
2023-03-10T13:30:04.548Z,95515.46
2023-03-10T13:32:33.482Z,95514.55
2023-03-10T13:35:14.819Z,95513.86
2023-03-10T13:37:42.905Z,95515.61
2023-03-10T13:40:11.185Z,95509.48
2023-03-10T13:42:44.173Z,95514.15
2023-03-10T13:45:23.911Z,95511.31
2023-03-10T13:47:52.459Z,95506.98
2023-03-10T13:50:20.660Z,95504.20
2023-03-10T13:52:57.430Z,95504.95
2023-03-10T13:55:26.549Z,95500.20
2023-03-10T13:57:55.535Z,95499.16
2023-03-10T14:00:24.651Z,95494.87
2023-03-10T14:02:53.767Z,95490.88
2023-03-10T14:05:42.294Z,95490.29
2023-03-10T14:08:32.573Z,95488.17
2023-03-10T14:11:19.477Z,95487.67
2023-03-10T14:13:47.963Z,95481.56
2023-03-10T14:16:16.088Z,95479.16
2023-03-10T14:18:44.214Z,95480.17
2023-03-10T14:21:24.661Z,95481.70
2023-03-10T14:23:53.676Z,95479.08
2023-03-10T14:26:21.631Z,95474.75
2023-03-10T14:28:49.623Z,95469.70
2023-03-10T14:31:22.462Z,95466.90
2023-03-10T14:33:50.892Z,95465.64
2023-03-10T14:36:19.230Z,95462.67
2023-03-10T14:38:47.649Z,95460.20
2023-03-10T14:41:19.004Z,95453.95
2023-03-10T14:43:47.077Z,95451.75
2023-03-10T14:46:15.423Z,95447.92
2023-03-10T14:48:45.942Z,95441.41
2023-03-10T14:51:22.662Z,95440.54
2023-03-10T14:53:53.866Z,95438.13
2023-03-10T14:56:22.302Z,95435.36
2023-03-10T14:58:51.819Z,95428.78
2023-03-10T15:01:21.150Z,95421.34
2023-03-10T15:03:49.608Z,95420.13
2023-03-10T15:06:19.116Z,95420.20
2023-03-10T15:08:47.103Z,95416.64
2023-03-10T15:11:17.408Z,95410.73
2023-03-10T15:13:49.580Z,95406.45
2023-03-10T15:16:17.617Z,95404.23
2023-03-10T15:18:47.277Z,95403.23
2023-03-10T15:21:16.171Z,95399.35
2023-03-10T15:23:44.148Z,95393.34
2023-03-10T15:26:13.037Z,95391.11
2023-03-10T15:28:41.151Z,95385.16
2023-03-10T15:31:09.113Z,95379.50
2023-03-10T15:33:37.070Z,95376.39
2023-03-10T15:36:06.343Z,95377.14
2023-03-10T15:38:34.350Z,95370.98
2023-03-10T15:41:04.693Z,95370.36
2023-03-10T15:43:32.647Z,95364.16
2023-03-10T15:46:04.968Z,95363.78
2023-03-10T15:48:34.329Z,95357.48
2023-03-10T15:51:02.312Z,95353.40
2023-03-10T15:53:30.228Z,95348.09
2023-03-10T15:55:58.364Z,95342.58
2023-03-10T15:58:26.224Z,95334.71
2023-03-10T16:00:54.199Z,95336.23
2023-03-10T16:03:22.201Z,95332.59
2023-03-10T16:05:50.347Z,95332.76
2023-03-10T16:08:19.369Z,95326.91
2023-03-10T16:10:52.244Z,95323.10
2023-03-10T16:13:20.617Z,95325.94
2023-03-10T16:15:48.625Z,95322.52
2023-03-10T16:18:16.669Z,95322.00
2023-03-10T16:20:44.642Z,95319.70
2023-03-10T16:23:12.633Z,95317.27
2023-03-10T16:25:41.092Z,95310.64
2023-03-10T16:28:08.974Z,95309.23
2023-03-10T16:30:37.054Z,95306.40
2023-03-10T16:33:05.328Z,95303.03
2023-03-10T16:35:33.316Z,95304.56
2023-03-10T16:38:01.273Z,95307.45
2023-03-10T16:40:29.361Z,95303.02
2023-03-10T16:42:57.327Z,95303.68
2023-03-10T16:45:25.417Z,95301.70
2023-03-10T16:47:53.481Z,95296.02
2023-03-10T16:50:21.502Z,95290.65
2023-03-10T16:52:55.180Z,95288.98
2023-03-10T16:55:23.240Z,95285.84
2023-03-10T16:57:51.321Z,95283.28
2023-03-10T17:00:21.159Z,95284.80
2023-03-10T17:02:49.534Z,95282.01
2023-03-10T17:05:18.103Z,95282.70
2023-03-10T17:07:55.075Z,95279.26
2023-03-10T17:10:24.079Z,95279.13
2023-03-10T17:12:52.060Z,95281.71
2023-03-10T17:15:20.128Z,95280.92
2023-03-10T17:17:48.101Z,95279.41
2023-03-10T17:20:18.586Z,95276.73
2023-03-10T17:22:46.619Z,95273.33
2023-03-10T17:25:15.012Z,95275.40
2023-03-10T17:27:43.752Z,95273.52
2023-03-10T17:30:12.461Z,95269.82
2023-03-10T17:32:40.658Z,95265.14
2023-03-10T17:35:09.048Z,95264.58
2023-03-10T17:37:37.322Z,95264.41
2023-03-10T17:40:05.816Z,95264.14
2023-03-10T17:42:33.770Z,95261.66
2023-03-10T17:45:06.451Z,95257.89
2023-03-10T17:47:35.164Z,95250.79
2023-03-10T17:50:03.844Z,95248.05
2023-03-10T17:52:31.934Z,95243.20
2023-03-10T17:54:59.750Z,95241.54
2023-03-10T17:57:27.875Z,95241.23
2023-03-10T17:59:56.689Z,95245.59
2023-03-10T18:02:24.726Z,95240.09
2023-03-10T18:04:52.924Z,95242.90
2023-03-10T18:07:20.898Z,95239.80
2023-03-10T18:09:48.969Z,95239.70
2023-03-10T18:12:17.061Z,95234.71
2023-03-10T18:14:45.172Z,95232.63
2023-03-10T18:17:13.097Z,95232.36
2023-03-10T18:19:41.080Z,95232.31
2023-03-10T18:22:09.360Z,95229.77
2023-03-10T18:24:38.167Z,95227.31
2023-03-10T18:27:06.218Z,95222.39
2023-03-10T18:29:34.146Z,95221.37
2023-03-10T18:32:02.591Z,95219.35
2023-03-10T18:34:30.684Z,95216.63
2023-03-10T18:36:58.738Z,95215.29
2023-03-10T18:39:27.009Z,95210.09
2023-03-10T18:41:55.413Z,95204.21
2023-03-10T18:44:23.479Z,95201.73
2023-03-10T18:46:51.545Z,95198.18
2023-03-10T18:49:19.832Z,95197.20
2023-03-10T18:51:47.805Z,95194.27
2023-03-10T18:54:16.091Z,95196.88
2023-03-10T18:56:44.487Z,95195.08
2023-03-10T18:59:12.657Z,95191.98
2023-03-10T19:01:40.659Z,95191.64
2023-03-10T19:04:08.800Z,95188.11
2023-03-10T19:06:36.793Z,95186.71
2023-03-10T19:09:08.688Z,95185.27
2023-03-10T19:11:37.173Z,95179.95
2023-03-10T19:14:05.772Z,95176.65
2023-03-10T19:16:37.377Z,95174.95
2023-03-10T19:19:05.650Z,95176.92
2023-03-10T19:21:39.983Z,95173.23
2023-03-10T19:24:08.258Z,95178.83
2023-03-10T19:26:36.236Z,95174.48
2023-03-10T19:29:04.188Z,95170.81
2023-03-10T19:31:32.131Z,95172.23
2023-03-10T19:34:00.155Z,95167.44
2023-03-10T19:36:29.685Z,95166.39
2023-03-10T19:38:57.655Z,95156.98
2023-03-10T19:41:25.818Z,95155.94
2023-03-10T19:43:54.845Z,95153.98
2023-03-10T19:46:25.290Z,95148.64
2023-03-10T19:48:53.313Z,95144.27
2023-03-10T19:51:25.603Z,95138.45
2023-03-10T19:53:54.412Z,95140.13
2023-03-10T19:56:22.971Z,95138.61
2023-03-10T19:58:51.159Z,95143.11
2023-03-10T20:01:22.920Z,95146.75
2023-03-10T20:03:51.769Z,95151.35
2023-03-10T20:06:20.091Z,95150.67
2023-03-10T20:08:48.372Z,95144.36
2023-03-10T20:11:17.485Z,95140.33
2023-03-10T20:13:46.598Z,95137.78
2023-03-10T20:16:15.620Z,95133.00
2023-03-10T20:18:43.759Z,95134.77
2023-03-10T20:21:12.206Z,95125.78
2023-03-10T20:23:40.208Z,95127.89
2023-03-10T20:26:09.213Z,95128.05
2023-03-10T20:28:39.536Z,95128.30
2023-03-10T20:31:10.065Z,95129.50
2023-03-10T20:33:38.035Z,95119.07
2023-03-10T20:36:08.651Z,95115.94
2023-03-10T20:38:36.756Z,95111.73
2023-03-10T20:41:04.945Z,95110.46
2023-03-10T20:43:33.008Z,95109.25
2023-03-10T20:46:00.993Z,95105.71
2023-03-10T20:48:29.156Z,95109.63
2023-03-10T20:50:57.262Z,95105.64
2023-03-10T20:53:25.304Z,95100.55
2023-03-10T20:55:53.289Z,95098.13
2023-03-10T20:58:21.151Z,95089.19
2023-03-10T21:00:49.147Z,95083.23
2023-03-10T21:03:17.105Z,95080.55
2023-03-10T21:05:45.179Z,95079.09
2023-03-10T21:08:13.973Z,95071.13
2023-03-10T21:10:42.155Z,95066.44
2023-03-10T21:13:10.325Z,95062.41
2023-03-10T21:15:39.434Z,95060.78
2023-03-10T21:18:07.397Z,95063.70
2023-03-10T21:20:35.483Z,95063.14
2023-03-10T21:23:03.459Z,95063.20
2023-03-10T21:25:31.647Z,95063.39
2023-03-10T21:27:59.814Z,95067.96
2023-03-10T21:30:28.867Z,95068.23
2023-03-10T21:32:57.704Z,95067.13
2023-03-10T21:35:26.511Z,95067.88
2023-03-10T21:37:55.629Z,95062.88
2023-03-10T21:40:24.453Z,95061.95
2023-03-10T21:42:52.377Z,95054.81
2023-03-10T21:45:21.470Z,95052.70
2023-03-10T21:47:50.376Z,95052.16
2023-03-10T21:50:19.166Z,95053.09
2023-03-10T21:52:48.359Z,95051.11
2023-03-10T21:55:21.558Z,95049.45
2023-03-10T21:57:50.048Z,95054.98
2023-03-10T22:00:19.968Z,95055.75
2023-03-10T22:02:47.942Z,95057.69
2023-03-10T22:05:17.652Z,95054.46
2023-03-10T22:07:45.634Z,95053.64
2023-03-10T22:10:14.419Z,95054.02
2023-03-10T22:12:42.419Z,95054.38
2023-03-10T22:15:14.357Z,95045.48
2023-03-10T22:17:42.436Z,95047.46
2023-03-10T22:20:13.401Z,95048.04
2023-03-10T22:22:41.348Z,95044.58
2023-03-10T22:25:10.238Z,95038.38
2023-03-10T22:27:38.317Z,95035.71
2023-03-10T22:30:06.702Z,95030.42
2023-03-10T22:32:34.937Z,95028.37
2023-03-10T22:35:03.468Z,95024.46
2023-03-10T22:37:31.444Z,95026.66
2023-03-10T22:39:59.574Z,95026.38
2023-03-10T22:42:27.805Z,95028.55
2023-03-10T22:44:55.772Z,95028.61
2023-03-10T22:47:23.848Z,95031.90
2023-03-10T22:49:51.802Z,95031.62
2023-03-10T22:52:19.901Z,95027.80
2023-03-10T22:54:47.876Z,95024.14
2023-03-10T22:57:15.841Z,95021.75
2023-03-10T22:59:43.868Z,95027.14
2023-03-10T23:02:11.799Z,95023.94
2023-03-10T23:04:39.767Z,95023.34
2023-03-10T23:07:07.648Z,95026.95
2023-03-10T23:09:35.517Z,95024.77
2023-03-10T23:12:03.500Z,95019.87
2023-03-10T23:14:31.871Z,95020.02
2023-03-10T23:16:59.850Z,95018.46
2023-03-10T23:19:27.825Z,95014.69
2023-03-10T23:21:55.899Z,95013.59
2023-03-10T23:24:24.189Z,95013.67
2023-03-10T23:26:52.257Z,95011.39
2023-03-10T23:29:20.231Z,95008.30
2023-03-10T23:31:48.268Z,95006.08
2023-03-10T23:34:16.500Z,95005.57
2023-03-10T23:36:44.666Z,94998.05
2023-03-10T23:39:13.766Z,94996.39
2023-03-10T23:41:41.857Z,94991.76
2023-03-10T23:44:09.922Z,94988.80
2023-03-10T23:46:38.014Z,94984.75
2023-03-10T23:49:05.917Z,94982.82
2023-03-10T23:51:33.849Z,94983.42
2023-03-10T23:54:01.927Z,94984.36
2023-03-10T23:56:29.894Z,94986.36
2023-03-10T23:58:59.111Z,94984.29
